Wednesday, April 23, 2014, 4:25 AM EDT

KSHD, Staunton / Shenandoah

Location: Weyers Cave, VA, United States Lat: 38.267
Local Time: 4:25 AM EDT ( 8:25 GMT) Lon: -78.9
Time Zone: US/Eastern Elev: 1200 ft

Show me the last for .
Show Decoded

2014-04-23 03:55 METAR KSHD 230755Z AUTO 32005KT 10SM SCT055 11/00 A2975 RMK AO2 T01120000 =
2014-04-23 03:35 METAR KSHD 230735Z AUTO 30010KT 10SM CLR 12/00 A2975 RMK AO2 T01171004 =
2014-04-23 03:15 METAR KSHD 230715Z AUTO 31008KT 10SM CLR 12/M01 A2974 RMK AO2 T01151006 =
2014-04-23 02:55 METAR KSHD 230655Z AUTO 33007KT 10SM CLR 12/00 A2974 RMK AO2 T01171005 =
2014-04-23 02:35 METAR KSHD 230635Z AUTO 33009KT 10SM CLR 13/M01 A2974 RMK AO2 T01261014 =
2014-04-23 02:15 METAR KSHD 230615Z AUTO 32011G15KT 10SM CLR 13/M02 A2974 RMK AO2 T01301018 =
2014-04-23 01:55 METAR KSHD 230555Z AUTO 32008KT 10SM CLR 14/M01 A2973 RMK AO2 T01351015 10185
                 20118 402220063 =
2014-04-23 01:35 METAR KSHD 230535Z AUTO 31007KT 10SM CLR 12/00 A2973 RMK AO2 T01210002 =
2014-04-23 01:15 METAR KSHD 230515Z AUTO 29003KT 10SM CLR 13/00 A2973 RMK AO2 T01290004 =
2014-04-23 00:55 METAR KSHD 230455Z AUTO 28005KT 10SM CLR 14/00 A2973 RMK AO2 T01370003 =
2014-04-23 00:35 METAR KSHD 230435Z AUTO 31008KT 10SM CLR 15/00 A2973 RMK AO2 T01460003 =
2014-04-23 00:15 METAR KSHD 230415Z AUTO 31008KT 10SM CLR 15/01 A2972 RMK AO2 T01490007 =
2014-04-22 23:55 METAR KSHD 230355Z AUTO 32010KT 10SM CLR 16/01 A2971 RMK AO2 T01550008 =
2014-04-22 23:35 METAR KSHD 230335Z AUTO 30006KT 10SM SCT065 SCT075 15/05 A2970 RMK AO2 T01530046
                 =
2014-04-22 23:15 METAR KSHD 230315Z AUTO 31007KT 10SM SCT065 SCT080 15/07 A2970 RMK AO2 T01500070
                 =
2014-04-22 22:55 METAR KSHD 230255Z AUTO 30006KT 10SM SCT065 13/08 A2970 RMK AO2 T01320076 =
2014-04-22 22:35 METAR KSHD 230235Z AUTO 30005KT 10SM CLR 13/08 A2969 RMK AO2 T01340076 =
2014-04-22 22:15 METAR KSHD 230215Z AUTO 28005KT 10SM CLR 15/08 A2969 RMK AO2 T01490076 =
2014-04-22 21:55 METAR KSHD 230155Z AUTO 27005KT 10SM CLR 17/08 A2969 RMK AO2 T01690075 =
2014-04-22 21:35 METAR KSHD 230135Z AUTO 00000KT 10SM CLR 16/08 A2969 RMK AO2 T01560080 =
2014-04-22 21:15 METAR KSHD 230115Z AUTO 26004KT 10SM SCT065 17/08 A2969 RMK AO2 T01670078 =
2014-04-22 20:55 METAR KSHD 230055Z AUTO 23005KT 10SM CLR 15/08 A2968 RMK AO2 T01500081 =
2014-04-22 20:35 METAR KSHD 230035Z AUTO 23003KT 10SM CLR 15/08 A2967 RMK AO2 T01500082 =
2014-04-22 20:15 METAR KSHD 230015Z AUTO 24003KT 10SM SCT120 17/08 A2967 RMK AO2 T01740084 =
2014-04-22 19:55 METAR KSHD 222355Z AUTO 27004KT 10SM SCT033 SCT050 BKN120 19/09 A2966 RMK AO2
                 T01850089 10222 20184 =
2014-04-22 19:35 METAR KSHD 222335Z AUTO 00000KT 10SM -RA OVC070 18/10 A2966 RMK AO2 T01840101 =
2014-04-22 19:15 METAR KSHD 222315Z AUTO 00000KT 10SM SCT070 BKN080 20/09 A2965 RMK AO2 T02000087
                 =
2014-04-22 18:55 METAR KSHD 222255Z AUTO 00000KT 10SM SCT090 20/08 A2964 RMK AO2 T02030081 =
2014-04-22 18:35 METAR KSHD 222235Z AUTO 00000KT 10SM SCT090 SCT110 21/07 A2964 RMK AO2 T02130072
                 =
2014-04-22 18:15 METAR KSHD 222215Z AUTO 00000KT 10SM SCT075 SCT080 BKN110 22/07 A2964 RMK AO2
                 T02150070 =
2014-04-22 17:55 METAR KSHD 222155Z AUTO 34004KT 10SM SCT060 BKN085 22/08 A2966 RMK AO2 T02160079
                 =
2014-04-22 17:35 METAR KSHD 222135Z AUTO 29008KT 10SM SCT055 SCT070 SCT080 22/08 A2966 RMK AO2
                 T02150075 =
2014-04-22 17:15 METAR KSHD 222115Z AUTO 30007KT 10SM SCT055 SCT075 BKN080 22/09 A2966 RMK AO2
                 T02150085 =
2014-04-22 16:55 METAR KSHD 222055Z AUTO 25006KT 10SM SCT055 SCT065 BKN080 21/08 A2966 RMK AO2
                 T02140081 =
2014-04-22 16:35 METAR KSHD 222035Z AUTO 27008G15KT 10SM BKN080 22/09 A2966 RMK AO2 T02170086 =
2014-04-22 16:15 METAR KSHD 222015Z AUTO 27009KT 10SM SCT065 OVC095 22/09 A2967 RMK AO2 T02200086
                 =
2014-04-22 15:55 METAR KSHD 221955Z AUTO 27010KT 10SM BKN060 OVC095 22/08 A2968 RMK AO2 T02150081
                 =
2014-04-22 15:35 METAR KSHD 221935Z AUTO 26010KT 10SM OVC060 21/08 A2968 RMK AO2 T02070084 =
2014-04-22 15:15 METAR KSHD 221915Z AUTO 24009G14KT 10SM BKN060 21/08 A2969 RMK AO2 T02120082 =
2014-04-22 14:55 METAR KSHD 221855Z AUTO 26008G16KT 10SM SCT060 SCT095 BKN120 21/09 A2970 RMK AO2
                 T02110085 =
2014-04-22 14:35 METAR KSHD 221835Z AUTO 27008KT 250V310 10SM SCT055 OVC110 21/08 A2970 RMK AO2
                 LTG DSNT SW T02060083 =
2014-04-22 14:15 METAR KSHD 221815Z AUTO 28009G19KT 10SM SCT065 SCT085 OVC100 21/09 A2971 RMK AO2
                 T02050085 =
2014-04-22 13:55 METAR KSHD 221755Z AUTO 29007KT 10SM BKN065 BKN085 OVC120 21/09 A2972 RMK AO2
                 T02090090 10209 20106 =
2014-04-22 13:35 METAR KSHD 221735Z AUTO 29008G15KT 10SM OVC065 20/09 A2972 RMK AO2 T02010088 =
2014-04-22 13:15 METAR KSHD 221715Z AUTO 27009G17KT 10SM OVC065 20/08 A2972 RMK AO2 T02040079 =
2014-04-22 12:55 METAR KSHD 221655Z AUTO 24007KT 10SM OVC065 20/08 A2972 RMK AO2 T02000084 =
2014-04-22 12:35 METAR KSHD 221635Z AUTO 20008KT 10SM BKN065 BKN080 20/07 A2973 RMK AO2 T02030073
                 =
2014-04-22 12:15 METAR KSHD 221615Z AUTO 20006KT 10SM SCT065 BKN120 20/08 A2973 RMK AO2 T02000075
                 =
2014-04-22 11:55 METAR KSHD 221555Z AUTO 19006KT 10SM SCT065 BKN110 19/08 A2973 RMK AO2 T01940084
                 =
2014-04-22 11:35 METAR KSHD 221535Z AUTO 15003KT 10SM -RA SCT032 SCT055 OVC100 20/08 A2974 RMK
                 AO2 T01950081 =
2014-04-22 11:15 METAR KSHD 221515Z AUTO 18003KT 10SM -RA SCT037 SCT055 OVC100 19/08 A2975 RMK
                 AO2 T01900084 =
2014-04-22 10:55 METAR KSHD 221455Z AUTO 19004KT 10SM OVC100 19/07 A2975 RMK AO2 T01870074 =
2014-04-22 10:35 METAR KSHD 221435Z AUTO 19005KT 10SM OVC110 18/07 A2976 RMK AO2 T01830071 =
2014-04-22 10:15 METAR KSHD 221415Z AUTO 22004KT 10SM OVC095 17/07 A2976 RMK AO2 T01710070 =
2014-04-22 09:55 METAR KSHD 221355Z AUTO 00000KT 10SM OVC095 16/07 A2977 RMK AO2 T01550074 =
2014-04-22 09:35 METAR KSHD 221335Z AUTO 00000KT 10SM OVC095 15/06 A2977 RMK AO2 T01450061 =
2014-04-22 09:15 METAR KSHD 221315Z AUTO 00000KT 10SM BKN095 14/06 A2978 RMK AO2 T01410061 =
2014-04-22 08:55 METAR KSHD 221255Z AUTO 00000KT 10SM SCT095 SCT120 14/06 A2979 RMK AO2 T01350058
                 =
2014-04-22 08:35 METAR KSHD 221235Z AUTO 18004KT 7SM CLR 13/06 A2979 RMK AO2 T01270062 =
2014-04-22 08:15 METAR KSHD 221215Z AUTO 23004KT 10SM CLR 12/06 A2980 RMK AO2 T01210057 =
2014-04-22 07:55 METAR KSHD 221155Z AUTO 00000KT 10SM CLR 11/06 A2980 RMK AO2 T01060062 10110
                 20063 =
2014-04-22 07:35 METAR KSHD 221135Z AUTO 00000KT 10SM CLR 10/06 A2980 RMK AO2 T00980055 =
2014-04-22 07:15 METAR KSHD 221115Z AUTO 32003KT 10SM CLR 09/04 A2980 RMK AO2 T00930044 =
2014-04-22 06:55 METAR KSHD 221055Z AUTO 00000KT 10SM CLR 07/04 A2980 RMK AO2 T00710039 =
2014-04-22 06:35 METAR KSHD 221035Z AUTO 00000KT 10SM CLR 06/04 A2980 RMK AO2 T00630035 =
2014-04-22 06:15 METAR KSHD 221015Z AUTO 00000KT 10SM CLR 08/04 A2979 RMK AO2 T00750036 =
2014-04-22 05:55 METAR KSHD 220955Z AUTO 00000KT 10SM CLR 08/04 A2980 RMK AO2 T00770037 =
2014-04-22 05:35 METAR KSHD 220935Z AUTO 00000KT 10SM CLR 08/04 A2981 RMK AO2 T00810037 =
2014-04-22 05:15 METAR KSHD 220915Z AUTO 25003KT 10SM CLR 07/04 A2981 RMK AO2 T00730039 =
2014-04-22 04:55 METAR KSHD 220855Z AUTO 00000KT 10SM CLR 08/04 A2982 RMK AO2 T00750043 =
2014-04-22 04:35 METAR KSHD 220835Z AUTO 00000KT 10SM CLR 09/05 A2982 RMK AO2 T00850045 =

Support USWX by starting your Amazon purchase here.